KMDW/MDW METAR and TAF weather

Enter ICAO airport designator
Station Type Date Time Source
KMDW METAR 2023/02/05 12:53 UTC NOAA

KMDW 051253Z 22009KT 10SM FEW150 SCT180 02/M03 A2985 RMK AO2 SLP117 T00171033 $


Station Type Date Time Source
KMDW Decoded METAR 2023/02/05 12:53 UTC NOAA

CHICAGO MIDWAY AIRPORT, IL, United States (KMDW) 41-47N 087-45W 188M
Feb 05, 2023 - 07:53 AM EST / 2023.02.05 1253 UTC
Wind: from the SW (220 degrees) at 10 MPH (9 KT):0
Visibility: 10 mile(s):0
Sky conditions: partly cloudy
Temperature: 35.1 F (1.7 C)
Dew Point: 26.1 F (-3.3 C)
Relative Humidity: 69%
Pressure (altimeter): 29.85 in. Hg (1010 hPa)
ob: KMDW 051253Z 22009KT 10SM FEW150 SCT180 02/M03 A2985 RMK AO2 SLP117 T00171033
cycle: 13

Station Type Date Time Source
KMDW TAF 2023/02/05 12:24 UTC NOAA

TAF KMDW 051121Z 0512/0618 24012G19KT P6SM SCT120
FM052200 30011G17KT P6SM BKN025
FM060200 33007KT P6SM SCT020
FM060900 10003KT 6SM BR SCT010
FM061500 15010KT P6SM SCT015 SCT250

Example: see airport list